Time;durP1;ratioP1;P1;durP2;ratioP2;P2;SDS_P1;SDS_P2;PMS_P1;PMS_P2;Temp;Humidity;BMP_temperature;BMP_pressure;BME280_temperature;BME280_humidity;BME280_pressure;Samples;Min_cycle;Max_cycle;Signal;HPM_P1;HPM_P2
2021/03/16 00:04:56;;;;;;;8.73;3.40;;;;;;;6.16;62.80;100328.00;10269271;28;20121;-64
2021/03/16 00:09:58;;;;;;;5.75;3.03;;;;;;;6.46;62.34;100334.16;10261624;28;20502;-65
2021/03/16 00:14:58;;;;;;;6.65;3.13;;;;;;;6.57;61.45;100342.25;10268922;28;20086;-65
2021/03/16 00:19:59;;;;;;;10.13;3.72;;;;;;;6.57;60.37;100328.19;10270009;28;20055;-63
2021/03/16 00:25:01;;;;;;;11.48;3.80;;;;;;;6.69;60.55;100340.63;10267159;28;20119;-65
2021/03/16 00:30:03;;;;;;;6.13;3.40;;;;;;;6.78;60.16;100347.16;10265637;28;20141;-64
2021/03/16 00:35:04;;;;;;;6.53;3.33;;;;;;;6.96;59.48;100364.50;10265942;28;20138;-65
2021/03/16 00:40:06;;;;;;;6.00;3.28;;;;;;;6.89;59.57;100357.88;10263667;28;20054;-64
2021/03/16 00:45:08;;;;;;;6.25;3.13;;;;;;;6.91;59.20;100369.25;10263082;28;20050;-65
2021/03/16 00:50:11;;;;;;;8.15;3.50;;;;;;;6.84;58.78;100360.81;10266727;28;20062;-64
2021/03/16 00:55:12;;;;;;;7.18;3.30;;;;;;;6.70;59.68;100380.22;10264193;28;20042;-64
2021/03/16 01:00:13;;;;;;;6.93;2.83;;;;;;;6.67;58.58;100380.41;10266258;28;20141;-65
2021/03/16 01:05:15;;;;;;;5.43;2.63;;;;;;;6.36;59.84;100377.03;10259285;28;20061;-63
2021/03/16 01:10:20;;;;;;;5.60;3.17;;;;;;;6.07;60.21;100378.75;10267288;28;20079;-66
2021/03/16 01:15:21;;;;;;;6.78;3.55;;;;;;;5.90;60.82;100400.00;10256446;28;20058;-65
2021/03/16 01:20:24;;;;;;;7.03;2.50;;;;;;;5.95;61.65;100382.94;10270785;28;20055;-66
2021/03/16 01:25:25;;;;;;;9.60;3.13;;;;;;;6.06;61.56;100405.28;10266073;28;20061;-64
2021/03/16 01:30:26;;;;;;;6.07;2.70;;;;;;;5.88;61.91;100391.34;10268142;28;20553;-65
2021/03/16 01:35:27;;;;;;;5.15;2.22;;;;;;;6.15;61.03;100388.88;10268908;28;20109;-64
2021/03/16 01:40:34;;;;;;;6.82;3.25;;;;;;;6.24;61.31;100422.69;10272511;22;20065;-60
2021/03/16 01:45:36;;;;;;;6.47;3.35;;;;;;;6.45;60.35;100419.69;10286475;28;20109;-62
2021/03/16 01:50:38;;;;;;;6.32;2.53;;;;;;;6.03;61.30;100422.16;10296205;28;20078;-60
2021/03/16 01:55:40;;;;;;;9.45;3.38;;;;;;;6.17;61.84;100432.78;10292865;28;20503;-60
2021/03/16 02:00:42;;;;;;;5.20;2.33;;;;;;;6.22;60.74;100429.03;10300907;28;20058;-60
2021/03/16 02:05:44;;;;;;;7.20;2.60;;;;;;;5.96;61.86;100424.31;10300577;28;20372;-60
2021/03/16 02:11:08;;;;;;;9.77;2.65;;;;;;;5.86;62.41;100428.41;10299319;28;20171;-60
2021/03/16 02:16:15;;;;;;;6.03;2.40;;;;;;;6.03;62.20;100430.09;10299741;28;20198;-59
2021/03/16 02:21:21;;;;;;;5.78;3.10;;;;;;;5.98;62.32;100435.66;10300769;28;20042;-61
2021/03/16 02:26:35;;;;;;;4.75;3.17;;;;;;;6.41;61.29;100436.69;10298392;28;20100;-60
2021/03/16 02:31:40;;;;;;;4.95;2.85;;;;;;;6.36;61.11;100443.13;10300809;28;20061;-60
2021/03/16 02:36:42;;;;;;;3.88;2.30;;;;;;;6.16;62.24;100440.81;10295694;28;20046;-59
2021/03/16 02:41:46;;;;;;;4.82;2.72;;;;;;;6.49;61.10;100442.38;10298574;28;20550;-59
2021/03/16 02:46:49;;;;;;;7.28;3.20;;;;;;;6.55;61.09;100449.94;10298459;28;20686;-60
2021/03/16 02:51:52;;;;;;;6.10;2.33;;;;;;;6.41;59.93;100455.19;10300130;28;20050;-60
2021/03/16 02:56:54;;;;;;;7.85;3.25;;;;;;;6.19;61.05;100445.91;10299958;28;20062;-59
2021/03/16 03:01:57;;;;;;;8.30;2.80;;;;;;;5.87;61.55;100445.97;10298174;28;20511;-62
2021/03/16 03:07:00;;;;;;;7.47;2.72;;;;;;;5.78;62.86;100459.69;10299187;28;20124;-60
2021/03/16 03:12:02;;;;;;;5.53;2.33;;;;;;;6.05;61.33;100462.59;10294445;28;20062;-60
2021/03/16 03:17:04;;;;;;;4.57;2.35;;;;;;;6.05;61.77;100470.50;10299406;28;20233;-65
2021/03/16 03:22:21;;;;;;;7.53;2.33;;;;;;;5.73;62.76;100477.59;10301955;28;20061;-59
2021/03/16 03:27:31;;;;;;;7.57;2.78;;;;;;;5.81;62.39;100475.38;10298475;28;20053;-60
2021/03/16 03:32:34;;;;;;;5.65;2.60;;;;;;;5.55;63.26;100490.91;10298603;28;20074;-60
2021/03/16 03:37:37;;;;;;;6.85;2.83;;;;;;;5.57;63.21;100491.69;10302711;28;20089;-59
2021/03/16 03:42:39;;;;;;;6.68;2.83;;;;;;;5.57;63.56;100499.59;10304785;28;20562;-60
2021/03/16 03:47:44;;;;;;;7.70;2.67;;;;;;;5.63;63.17;100499.25;10304542;28;20089;-63
2021/03/16 03:52:47;;;;;;;10.57;2.88;;;;;;;5.32;64.05;100506.22;10302876;28;20047;-61
2021/03/16 03:57:51;;;;;;;11.27;3.30;;;;;;;5.39;63.81;100514.66;10303476;28;20684;-60
2021/03/16 04:02:53;;;;;;;8.77;3.17;;;;;;;5.34;64.36;100514.06;10303402;28;20093;-60
2021/03/16 04:07:56;;;;;;;6.95;2.70;;;;;;;5.29;63.90;100514.31;10302692;28;20416;-60
2021/03/16 04:12:58;;;;;;;5.32;3.00;;;;;;;5.30;63.91;100518.66;10303224;28;20651;-59
2021/03/16 04:18:01;;;;;;;10.00;3.25;;;;;;;5.38;63.56;100520.03;10300932;28;20050;-58
2021/03/16 04:23:02;;;;;;;8.65;3.22;;;;;;;5.82;62.96;100541.34;10301558;28;20049;-60
2021/03/16 04:28:03;;;;;;;9.45;4.57;;;;;;;5.99;62.14;100535.13;10299381;28;20055;-61
2021/03/16 04:33:04;;;;;;;9.32;4.68;;;;;;;6.11;61.98;100554.72;10293306;28;20066;-61
2021/03/16 04:38:06;;;;;;;8.07;3.35;;;;;;;6.15;61.90;100558.03;10302429;28;20050;-59
2021/03/16 04:43:08;;;;;;;9.75;3.67;;;;;;;6.18;61.40;100566.66;10302654;28;20524;-58
2021/03/16 04:48:09;;;;;;;8.55;3.67;;;;;;;6.40;61.22;100580.44;10298919;28;20061;-60
2021/03/16 04:53:10;;;;;;;8.20;3.90;;;;;;;6.47;61.53;100584.41;10301603;28;20068;-60
2021/03/16 04:58:11;;;;;;;10.55;4.35;;;;;;;6.55;61.14;100590.13;10298581;28;20046;-63
2021/03/16 05:03:12;;;;;;;9.02;4.05;;;;;;;6.54;61.22;100589.28;10294456;28;20054;-60
2021/03/16 05:08:13;;;;;;;7.30;4.00;;;;;;;6.54;61.77;100593.69;10295207;28;20053;-61
2021/03/16 05:13:14;;;;;;;9.15;4.35;;;;;;;6.54;61.84;100605.16;10302514;28;20101;-61
2021/03/16 05:18:16;;;;;;;7.78;4.00;;;;;;;6.48;61.43;100615.22;10297051;28;20178;-60
2021/03/16 05:23:17;;;;;;;6.68;3.25;;;;;;;6.48;61.92;100615.22;10299250;28;20101;-60
2021/03/16 05:28:18;;;;;;;9.65;4.93;;;;;;;6.39;61.54;100623.69;10301529;28;20050;-60
2021/03/16 05:33:20;;;;;;;6.97;3.92;;;;;;;6.29;62.40;100616.28;10301532;28;20046;-60
2021/03/16 05:38:20;;;;;;;7.40;4.10;;;;;;;6.46;61.76;100622.41;10298858;28;20120;-60
2021/03/16 05:43:22;;;;;;;10.93;4.65;;;;;;;6.63;61.24;100630.19;10310872;28;20050;-61
2021/03/16 05:48:24;;;;;;;8.95;3.58;;;;;;;6.69;61.30;100631.63;10300829;28;20046;-61
2021/03/16 05:53:27;;;;;;;9.43;4.95;;;;;;;6.60;60.83;100640.94;10302166;28;20129;-60
2021/03/16 05:58:28;;;;;;;7.82;3.75;;;;;;;6.74;59.94;100645.47;10301093;28;20057;-60
2021/03/16 06:03:29;;;;;;;8.68;3.38;;;;;;;6.41;60.36;100637.66;10300503;28;20061;-60
2021/03/16 06:08:32;;;;;;;7.85;3.20;;;;;;;6.67;59.89;100650.25;10286820;28;20045;-59
2021/03/16 06:13:35;;;;;;;7.15;3.50;;;;;;;6.76;59.00;100658.59;10294454;28;20046;-59
2021/03/16 06:18:41;;;;;;;8.32;3.85;;;;;;;6.78;58.81;100667.28;10293878;28;20054;-59
2021/03/16 06:23:52;;;;;;;7.93;2.47;;;;;;;6.55;58.13;100659.72;10286726;28;20387;-60
2021/03/16 06:29:07;;;;;;;8.50;2.55;;;;;;;6.64;57.55;100666.28;10290143;28;20455;-59
2021/03/16 06:34:24;;;;;;;6.53;3.25;;;;;;;6.64;56.79;100671.59;10288172;28;20046;-59
2021/03/16 06:39:29;;;;;;;5.57;1.92;;;;;;;6.68;55.91;100678.41;10290143;28;20407;-59
2021/03/16 06:44:30;;;;;;;6.47;1.50;;;;;;;6.36;54.82;100686.38;10298850;28;20050;-59
2021/03/16 06:49:33;;;;;;;5.13;1.30;;;;;;;6.41;55.42;100691.41;10295760;28;20062;-60
2021/03/16 06:54:34;;;;;;;5.50;1.38;;;;;;;6.60;55.83;100696.50;10303205;28;20066;-59
2021/03/16 06:59:35;;;;;;;10.68;1.60;;;;;;;6.78;55.11;100707.81;10310530;28;20560;-59
2021/03/16 07:04:42;;;;;;;5.72;1.52;;;;;;;6.96;55.01;100713.84;10308854;28;20064;-59
2021/03/16 07:09:45;;;;;;;5.00;1.60;;;;;;;6.89;54.87;100720.44;10305728;28;20142;-60
2021/03/16 07:14:47;;;;;;;7.47;1.90;;;;;;;6.77;54.69;100724.66;10309047;28;20104;-60
2021/03/16 07:19:53;;;;;;;4.57;1.65;;;;;;;7.12;58.00;100734.16;10319190;28;20109;-57
2021/03/16 07:24:55;;;;;;;;;;;;;;;7.33;54.35;100737.34;10304529;28;20054;-60
2021/03/16 07:29:57;;;;;;;7.68;2.70;;;;;;;7.34;55.08;100745.19;10305194;28;19921;-60
2021/03/16 07:35:01;;;;;;;7.30;3.53;;;;;;;7.44;56.34;100746.31;10299670;28;20042;-60
2021/03/16 07:40:05;;;;;;;;;;;;;;;7.55;57.11;100758.06;10305316;28;20046;-62
2021/03/16 07:45:06;;;;;;;7.22;3.75;;;;;;;7.67;56.54;100765.31;10306385;28;19925;-60
2021/03/16 07:50:09;;;;;;;14.73;4.65;;;;;;;7.79;55.56;100767.22;10304269;28;20069;-61
2021/03/16 07:55:23;;;;;;;9.90;4.35;;;;;;;7.79;56.05;100756.63;10307892;28;20046;-60
2021/03/16 08:00:28;;;;;;;7.25;3.53;;;;;;;7.95;54.87;100768.94;10302637;28;20046;-61
2021/03/16 08:05:43;;;;;;;6.53;2.92;;;;;;;8.08;54.32;100769.88;10301638;22;20078;-54
2021/03/16 08:10:46;;;;;;;6.80;3.60;;;;;;;8.09;53.47;100757.47;10278004;28;20482;-55
2021/03/16 08:15:49;;;;;;;9.10;3.60;;;;;;;8.05;53.25;100751.50;10277752;28;20055;-55
2021/03/16 08:20:50;;;;;;;9.13;3.38;;;;;;;8.14;52.91;100782.75;10273770;28;20125;-55
2021/03/16 08:25:53;;;;;;;6.47;3.28;;;;;;;7.65;54.70;100767.19;10280721;28;20050;-57
2021/03/16 08:30:54;;;;;;;8.27;3.28;;;;;;;8.27;54.16;100781.97;10277041;28;20725;-56
2021/03/16 08:35:57;;;;;;;7.18;2.78;;;;;;;8.29;52.81;100788.06;10273244;28;20066;-54
2021/03/16 08:41:11;;;;;;;8.73;3.45;;;;;;;8.18;52.97;100787.88;10275533;28;20042;-55
2021/03/16 08:46:12;;;;;;;7.18;3.30;;;;;;;8.38;53.24;100787.47;10272797;28;20058;-60
2021/03/16 08:51:21;;;;;;;9.70;3.50;;;;;;;8.58;52.29;100786.25;10274050;28;20054;-56
2021/03/16 08:56:23;;;;;;;8.50;3.67;;;;;;;8.16;51.77;100795.91;10268116;28;20050;-56
2021/03/16 09:01:29;;;;;;;8.23;2.72;;;;;;;8.06;52.81;100790.34;10277593;28;20065;-55
2021/03/16 09:06:33;;;;;;;6.88;2.67;;;;;;;8.20;52.35;100778.03;10274875;28;20137;-55
2021/03/16 09:11:40;;;;;;;8.80;3.58;;;;;;;8.13;52.87;100781.03;10280938;28;20083;-56
2021/03/16 09:16:44;;;;;;;8.15;3.47;;;;;;;8.44;52.54;100804.84;10270190;28;20385;-55
2021/03/16 09:21:58;;;;;;;7.30;3.28;;;;;;;8.06;53.17;100808.91;10270699;28;20050;-55
2021/03/16 09:27:06;;;;;;;5.57;2.80;;;;;;;8.26;51.35;100796.22;10274781;28;20504;-54
2021/03/16 09:32:10;;;;;;;5.68;2.60;;;;;;;8.97;49.13;100789.09;10290115;28;20420;-56
2021/03/16 09:37:13;;;;;;;6.95;2.88;;;;;;;9.11;47.01;100785.53;10273376;28;20047;-56
2021/03/16 09:42:14;;;;;;;5.70;1.90;;;;;;;9.94;46.24;100781.72;10273094;28;20525;-56
2021/03/16 09:47:25;;;;;;;5.28;1.52;;;;;;;10.25;43.79;100780.44;10272081;28;20071;-58
2021/03/16 09:52:27;;;;;;;5.43;2.20;;;;;;;9.41;44.98;100774.66;10267463;28;20043;-55
2021/03/16 09:57:33;;;;;;;6.05;2.35;;;;;;;9.24;46.27;100781.09;10267044;28;20047;-55
2021/03/16 10:02:36;;;;;;;6.30;2.58;;;;;;;8.71;46.88;100778.38;10265683;28;20538;-55
2021/03/16 10:07:38;;;;;;;6.07;2.50;;;;;;;8.62;47.27;100781.63;10259564;28;20062;-55
2021/03/16 10:12:50;;;;;;;4.40;2.25;;;;;;;9.41;46.55;100789.75;10268122;28;20058;-55
2021/03/16 10:17:52;;;;;;;6.45;1.83;;;;;;;9.30;46.25;100788.66;10263306;28;20043;-55
2021/03/16 10:22:55;;;;;;;3.55;1.85;;;;;;;9.05;46.43;100800.06;10266145;28;20602;-57
2021/03/16 10:28:02;;;;;;;2.30;1.38;;;;;;;9.61;42.47;100794.59;10269110;28;20054;-57
2021/03/16 10:33:05;;;;;;;4.35;1.90;;;;;;;9.95;41.57;100778.97;10268801;28;20113;-59
2021/03/16 10:38:07;;;;;;;4.63;1.73;;;;;;;9.47;43.16;100790.22;10269986;28;20051;-54
2021/03/16 10:43:08;;;;;;;3.83;1.50;;;;;;;8.87;44.84;100793.28;10267693;28;20158;-55
2021/03/16 10:48:09;;;;;;;4.60;1.85;;;;;;;9.15;45.15;100789.69;10265325;28;20065;-55
2021/03/16 10:53:13;;;;;;;4.70;2.72;;;;;;;9.21;44.49;100783.97;10267759;28;20074;-55
2021/03/16 10:58:14;;;;;;;5.00;2.20;;;;;;;8.87;45.65;100786.16;10263332;28;20047;-55
2021/03/16 11:03:15;;;;;;;6.28;2.50;;;;;;;8.82;45.99;100778.50;10265533;28;20419;-55
2021/03/16 11:08:17;;;;;;;6.50;2.90;;;;;;;9.50;45.49;100790.00;10269298;28;20742;-57
2021/03/16 11:13:18;;;;;;;5.82;2.90;;;;;;;9.38;45.29;100793.47;10264796;28;20043;-55
2021/03/16 11:18:19;;;;;;;5.80;2.67;;;;;;;9.06;46.29;100780.53;10266568;28;20134;-55
2021/03/16 11:23:20;;;;;;;4.38;2.90;;;;;;;9.07;46.92;100791.97;10271097;28;20078;-55
2021/03/16 11:28:21;;;;;;;5.00;3.25;;;;;;;9.52;46.29;100793.41;10262410;28;20076;-56
2021/03/16 11:33:23;;;;;;;6.53;3.60;;;;;;;9.49;45.83;100782.97;10262162;28;20167;-56
2021/03/16 11:38:24;;;;;;;6.88;3.58;;;;;;;9.64;46.21;100796.19;10261461;28;20062;-57
2021/03/16 11:43:25;;;;;;;3.15;2.47;;;;;;;9.94;45.16;100779.06;10269399;28;20408;-56
2021/03/16 11:48:26;;;;;;;3.80;2.08;;;;;;;10.03;43.93;100781.09;10272021;28;20054;-55
2021/03/16 11:53:26;;;;;;;2.55;1.58;;;;;;;10.22;41.67;100776.19;10278348;28;20755;-55
2021/03/16 11:58:28;;;;;;;3.30;1.70;;;;;;;14.03;37.01;100761.56;10270037;28;20149;-54
2021/03/16 12:03:30;;;;;;;4.75;1.80;;;;;;;22.97;23.00;100745.56;10280129;28;20053;-54
2021/03/16 12:08:31;;;;;;;2.22;1.17;;;;;;;18.95;25.35;100745.31;10272779;28;20057;-55
2021/03/16 12:13:32;;;;;;;3.08;1.75;;;;;;;14.29;32.32;100737.00;10272224;28;20055;-55
2021/03/16 12:18:33;;;;;;;3.22;2.08;;;;;;;12.73;35.97;100724.31;10271833;28;21121;-56
2021/03/16 12:23:34;;;;;;;2.67;1.55;;;;;;;11.91;37.00;100735.28;10276424;28;20046;-56
2021/03/16 12:28:35;;;;;;;6.32;2.38;;;;;;;11.19;40.99;100717.69;10272905;28;20113;-56
2021/03/16 12:33:36;;;;;;;4.30;1.92;;;;;;;22.97;23.55;100712.13;10274403;28;20059;-55
2021/03/16 12:38:38;;;;;;;3.08;1.98;;;;;;;22.03;23.90;100698.31;10276525;28;20479;-57
2021/03/16 12:43:39;;;;;;;3.85;1.73;;;;;;;20.78;24.32;100707.75;10260459;28;20082;-56
2021/03/16 12:48:39;;;;;;;2.85;1.70;;;;;;;18.04;27.54;100689.41;10267617;28;20058;-56
2021/03/16 12:53:41;;;;;;;2.97;2.00;;;;;;;14.92;31.32;100690.31;10268159;28;20134;-56
2021/03/16 12:58:42;;;;;;;6.85;2.25;;;;;;;13.32;35.15;100710.59;10283321;28;20047;-56
2021/03/16 13:03:43;;;;;;;3.72;2.35;;;;;;;12.65;36.47;100707.22;10271402;28;20057;-55
2021/03/16 13:08:47;;;;;;;3.30;2.28;;;;;;;11.39;40.92;100718.00;10268912;28;20058;-55
2021/03/16 13:13:48;;;;;;;4.25;2.17;;;;;;;11.21;44.12;100730.91;10268517;28;20412;-55
2021/03/16 13:18:49;;;;;;;2.85;2.15;;;;;;;10.98;45.92;100740.63;10269824;28;20050;-56
2021/03/16 13:23:50;;;;;;;3.05;2.28;;;;;;;10.60;48.23;100737.19;10281979;28;20050;-56
2021/03/16 13:28:53;;;;;;;4.78;2.78;;;;;;;9.96;51.47;100742.59;10270734;28;20051;-58
2021/03/16 13:33:54;;;;;;;4.13;2.40;;;;;;;10.52;51.11;100731.53;10268875;28;20587;-56
2021/03/16 13:38:55;;;;;;;4.28;2.92;;;;;;;11.16;49.78;100720.59;10277587;28;20117;-56
2021/03/16 13:43:56;;;;;;;4.43;2.92;;;;;;;12.14;45.82;100698.78;10271352;28;20111;-56
2021/03/16 13:48:57;;;;;;;5.85;2.50;;;;;;;20.23;29.93;100706.81;10268099;28;20043;-59
2021/03/16 13:53:58;;;;;;;4.93;2.25;;;;;;;22.20;23.76;100687.25;10271694;28;20046;-57
2021/03/16 13:58:59;;;;;;;2.72;1.20;;;;;;;19.90;26.44;100674.53;10272055;28;20054;-55
2021/03/16 14:04:04;;;;;;;2.92;1.48;;;;;;;21.39;23.77;100690.66;10267671;28;20053;-56
2021/03/16 14:09:06;;;;;;;2.50;1.10;;;;;;;20.08;25.49;100676.16;10271411;28;20532;-59
2021/03/16 14:14:07;;;;;;;2.85;1.60;;;;;;;18.35;27.43;100674.38;10265503;28;20059;-55
2021/03/16 14:19:08;;;;;;;2.45;1.17;;;;;;;17.44;30.04;100685.69;10268528;23;20081;-64
2021/03/16 14:24:09;;;;;;;2.03;1.42;;;;;;;15.22;32.18;100691.16;10261652;28;20526;-63
2021/03/16 14:29:10;;;;;;;4.15;1.98;;;;;;;15.13;32.69;100691.03;10262560;28;20047;-63
2021/03/16 14:34:11;;;;;;;4.68;1.40;;;;;;;14.34;34.76;100694.59;10261364;28;20476;-62
2021/03/16 14:39:12;;;;;;;3.38;1.55;;;;;;;13.73;36.50;100682.97;10260588;28;20094;-62
2021/03/16 14:44:14;;;;;;;3.10;1.45;;;;;;;13.64;36.94;100685.59;10261173;28;20710;-62
2021/03/16 14:49:15;;;;;;;3.53;1.85;;;;;;;13.05;36.73;100683.38;10260835;28;20070;-60
2021/03/16 14:54:16;;;;;;;2.13;1.63;;;;;;;12.37;38.99;100672.94;10261419;28;20039;-63
2021/03/16 14:59:17;;;;;;;5.50;2.00;;;;;;;12.03;39.57;100681.00;10260003;28;21593;-64
2021/03/16 15:04:18;;;;;;;2.25;1.52;;;;;;;11.45;40.75;100680.22;10259284;28;20067;-61
2021/03/16 15:09:31;;;;;;;3.25;2.20;;;;;;;11.40;41.09;100682.38;10259250;28;20053;-60
2021/03/16 15:14:32;;;;;;;4.57;2.17;;;;;;;10.82;43.54;100682.31;10275839;28;20101;-61
2021/03/16 15:19:33;;;;;;;3.80;2.30;;;;;;;10.89;43.96;100680.91;10268913;28;20106;-62
2021/03/16 15:24:34;;;;;;;3.85;2.08;;;;;;;10.99;44.06;100671.25;10282300;28;20051;-62
2021/03/16 15:29:35;;;;;;;3.47;2.20;;;;;;;10.69;44.55;100663.75;10263450;28;20063;-60
2021/03/16 15:34:36;;;;;;;4.32;2.25;;;;;;;10.87;44.64;100674.84;10263643;28;20484;-61
2021/03/16 15:39:41;;;;;;;5.97;2.22;;;;;;;10.55;45.83;100670.09;10264238;28;20046;-60
2021/03/16 15:44:42;;;;;;;5.57;2.45;;;;;;;10.25;46.13;100653.59;10265519;28;20046;-61
2021/03/16 15:49:43;;;;;;;4.70;2.25;;;;;;;10.30;46.73;100663.91;10263373;28;20648;-60
2021/03/16 15:54:44;;;;;;;4.18;2.55;;;;;;;10.35;46.39;100658.25;10262731;28;20057;-61
2021/03/16 15:59:45;;;;;;;4.75;2.60;;;;;;;10.26;47.67;100667.72;10263419;28;20357;-61
2021/03/16 16:04:46;;;;;;;5.88;2.72;;;;;;;10.47;46.81;100654.69;10262064;28;20050;-61
2021/03/16 16:09:47;;;;;;;4.40;2.25;;;;;;;10.01;46.95;100644.69;10261755;28;20047;-61
2021/03/16 16:14:48;;;;;;;4.38;1.80;;;;;;;9.83;47.25;100658.38;10261602;28;20054;-59
2021/03/16 16:19:49;;;;;;;5.13;2.40;;;;;;;9.94;47.33;100648.75;10263578;28;20582;-61
2021/03/16 16:24:54;;;;;;;4.55;2.22;;;;;;;9.87;47.50;100653.69;10265765;28;20408;-61
2021/03/16 16:29:55;;;;;;;3.28;2.00;;;;;;;9.94;47.92;100649.63;10265474;28;20062;-61
2021/03/16 16:34:56;;;;;;;6.18;2.30;;;;;;;9.75;49.48;100655.41;10263046;28;20393;-61
2021/03/16 16:39:58;;;;;;;3.22;2.08;;;;;;;9.46;51.09;100654.78;10263499;28;20058;-60
2021/03/16 16:44:59;;;;;;;4.57;2.67;;;;;;;9.25;51.16;100660.63;10264516;28;20791;-61
2021/03/16 16:50:00;;;;;;;5.43;2.35;;;;;;;9.32;51.27;100659.25;10264112;28;20050;-62
2021/03/16 16:55:04;;;;;;;7.72;2.97;;;;;;;8.89;51.46;100666.59;10263803;28;20042;-61
2021/03/16 17:00:07;;;;;;;5.90;2.38;;;;;;;9.05;51.04;100683.19;10261195;28;20468;-61
2021/03/16 17:05:09;;;;;;;4.45;2.10;;;;;;;8.94;51.27;100691.91;10258278;28;20503;-63
2021/03/16 17:10:12;;;;;;;6.97;2.22;;;;;;;8.60;52.27;100687.97;10258063;28;20058;-60
2021/03/16 17:15:13;;;;;;;2.97;1.80;;;;;;;8.38;52.79;100699.94;10255139;28;20066;-60
2021/03/16 17:20:16;;;;;;;3.92;2.78;;;;;;;8.49;53.52;100705.41;10265428;28;20046;-61
2021/03/16 17:25:17;;;;;;;4.45;2.92;;;;;;;8.63;53.36;100695.72;10259319;28;20459;-60
2021/03/16 17:30:18;;;;;;;4.72;2.20;;;;;;;8.54;53.82;100699.84;10249109;28;20046;-60
2021/03/16 17:35:19;;;;;;;3.72;2.63;;;;;;;8.34;54.74;100709.03;10261170;28;20153;-60
2021/03/16 17:40:21;;;;;;;7.88;5.97;;;;;;;8.59;54.47;100710.16;10277062;28;20559;-60
2021/03/16 17:45:22;;;;;;;4.90;3.00;;;;;;;8.50;54.75;100708.94;10261509;28;20054;-60
2021/03/16 17:50:36;;;;;;;5.60;2.80;;;;;;;8.08;56.72;100708.91;10261342;28;20638;-61
2021/03/16 17:55:37;;;;;;;3.95;3.38;;;;;;;8.13;56.46;100712.09;10260878;28;23250;-60
2021/03/16 18:00:38;;;;;;;6.18;3.25;;;;;;;8.35;56.39;100720.50;10260925;28;21052;-59
2021/03/16 18:05:39;;;;;;;4.15;3.70;;;;;;;8.41;56.23;100720.13;10259640;28;20054;-61
2021/03/16 18:10:40;;;;;;;6.10;3.47;;;;;;;8.25;56.93;100721.06;10260473;28;20055;-60
2021/03/16 18:15:41;;;;;;;6.85;3.95;;;;;;;8.33;57.12;100725.91;10255577;28;20051;-60
2021/03/16 18:20:42;;;;;;;4.93;3.50;;;;;;;7.93;58.70;100736.38;10245450;28;20047;-61
2021/03/16 18:25:43;;;;;;;7.40;3.80;;;;;;;7.69;60.32;100731.63;10251952;28;20153;-61
2021/03/16 18:30:44;;;;;;;5.15;4.47;;;;;;;7.88;61.51;100735.78;10259664;28;20375;-60
2021/03/16 18:35:45;;;;;;;4.45;4.05;;;;;;;7.61;61.99;100732.09;10261935;28;20399;-62
2021/03/16 18:40:46;;;;;;;11.13;8.32;;;;;;;7.46;65.29;100724.19;10255409;28;20636;-61
2021/03/16 18:45:47;;;;;;;41.08;29.67;;;;;;;7.84;64.07;100710.44;10254178;28;20401;-61
2021/03/16 18:50:51;;;;;;;5.65;4.20;;;;;;;7.84;63.82;100721.88;10253948;28;20524;-61
2021/03/16 18:55:52;;;;;;;4.95;4.55;;;;;;;7.97;64.03;100714.00;10257238;28;20051;-61
2021/03/16 19:00:56;;;;;;;6.07;5.57;;;;;;;8.20;64.33;100709.09;10259001;28;20047;-61
2021/03/16 19:05:58;;;;;;;6.68;6.07;;;;;;;8.07;63.64;100698.38;10264605;28;20118;-61
2021/03/16 19:10:59;;;;;;;6.82;5.95;;;;;;;7.98;62.96;100702.47;10254722;28;20122;-62
2021/03/16 19:16:00;;;;;;;7.00;5.78;;;;;;;7.53;63.50;100697.25;10255685;28;20134;-61
2021/03/16 19:21:02;;;;;;;8.38;6.47;;;;;;;7.93;62.18;100705.41;10260308;28;20134;-61
2021/03/16 19:26:03;;;;;;;8.63;6.53;;;;;;;8.00;62.32;100683.81;10263386;28;20066;-59
2021/03/16 19:31:05;;;;;;;18.23;12.57;;;;;;;8.10;62.45;100691.06;10263459;28;20062;-63
2021/03/16 19:36:07;;;;;;;8.20;7.00;;;;;;;8.17;62.07;100694.22;10256934;28;20105;-61
2021/03/16 19:41:08;;;;;;;8.68;7.70;;;;;;;8.17;60.61;100690.69;10258510;28;20063;-62
2021/03/16 19:46:09;;;;;;;8.63;7.82;;;;;;;7.84;60.78;100689.22;10254825;28;20062;-62
2021/03/16 19:51:10;;;;;;;9.38;7.30;;;;;;;7.98;60.56;100686.56;10260018;28;20058;-62
2021/03/16 19:56:11;;;;;;;8.88;6.80;;;;;;;7.84;60.04;100697.19;10261016;28;20078;-63
2021/03/16 20:01:12;;;;;;;10.27;7.88;;;;;;;8.03;60.65;100700.38;10263506;28;20058;-61
2021/03/16 20:06:14;;;;;;;7.78;7.07;;;;;;;8.15;60.54;100704.03;10265985;28;20133;-61
2021/03/16 20:11:15;;;;;;;8.25;7.45;;;;;;;8.21;60.24;100703.69;10266095;28;20064;-61
2021/03/16 20:16:16;;;;;;;8.80;7.43;;;;;;;8.24;59.88;100699.97;10265506;28;20058;-61
2021/03/16 20:21:17;;;;;;;11.40;8.23;;;;;;;8.24;60.03;100714.09;10265928;28;20396;-62
2021/03/16 20:26:19;;;;;;;9.32;8.45;;;;;;;8.19;60.15;100716.16;10264198;28;20062;-60
2021/03/16 20:31:20;;;;;;;7.30;6.55;;;;;;;8.05;59.79;100714.38;10260272;28;20062;-60
2021/03/16 20:36:21;;;;;;;7.80;7.10;;;;;;;7.86;60.89;100712.03;10281830;23;20531;-63
2021/03/16 20:41:23;;;;;;;11.10;8.15;;;;;;;7.93;60.25;100693.97;10305787;28;20043;-65
2021/03/16 20:46:24;;;;;;;8.50;7.15;;;;;;;8.11;60.29;100710.50;10299972;28;20509;-64
2021/03/16 20:51:25;;;;;;;9.30;8.40;;;;;;;8.08;60.64;100718.66;10305155;28;20048;-64
2021/03/16 20:56:26;;;;;;;13.35;9.88;;;;;;;8.16;60.60;100726.13;10302492;28;20069;-66
2021/03/16 21:01:28;;;;;;;10.63;9.50;;;;;;;8.12;60.90;100736.94;10299904;28;20066;-68
2021/03/16 21:06:30;;;;;;;9.93;8.93;;;;;;;7.91;60.95;100717.03;10299914;28;20093;-64
2021/03/16 21:11:31;;;;;;;10.10;9.10;;;;;;;7.99;61.27;100728.03;10296870;28;21181;-66
2021/03/16 21:16:32;;;;;;;11.00;8.82;;;;;;;7.99;61.25;100730.69;10298368;28;20476;-65
2021/03/16 21:21:33;;;;;;;13.35;9.95;;;;;;;7.97;61.36;100727.25;10299088;28;20046;-62
2021/03/16 21:26:35;;;;;;;10.27;9.27;;;;;;;7.86;61.31;100735.88;10292796;28;20077;-62
2021/03/16 21:31:36;;;;;;;11.85;9.75;;;;;;;7.83;61.34;100756.44;10298604;28;20185;-65
2021/03/16 21:36:37;;;;;;;9.93;9.02;;;;;;;7.70;61.15;100741.28;10297984;28;20070;-65
2021/03/16 21:41:39;;;;;;;10.00;9.07;;;;;;;7.65;61.44;100753.09;10302018;28;20054;-65
2021/03/16 21:46:40;;;;;;;10.55;9.45;;;;;;;7.60;61.69;100734.81;10299488;28;20131;-65
2021/03/16 21:51:41;;;;;;;10.70;9.60;;;;;;;7.64;61.23;100736.34;10297580;28;20057;-63
2021/03/16 21:56:43;;;;;;;10.77;9.50;;;;;;;7.69;60.94;100728.97;10296324;28;20058;-65
2021/03/16 22:01:44;;;;;;;10.65;9.65;;;;;;;7.76;60.93;100743.56;10297932;28;20397;-65
2021/03/16 22:06:45;;;;;;;11.65;10.50;;;;;;;7.71;60.99;100724.41;10300454;28;20054;-66
2021/03/16 22:11:46;;;;;;;12.52;11.23;;;;;;;7.94;61.31;100748.66;10299697;28;20513;-66
2021/03/16 22:16:47;;;;;;;11.85;10.75;;;;;;;7.74;62.10;100731.34;10297814;28;20106;-63
2021/03/16 22:21:48;;;;;;;12.88;11.10;;;;;;;7.80;61.33;100736.25;10297530;28;20420;-67
2021/03/16 22:26:49;;;;;;;13.98;11.00;;;;;;;7.63;61.42;100739.94;10302180;28;20042;-67
2021/03/16 22:31:50;;;;;;;12.45;11.30;;;;;;;7.85;60.61;100730.66;10301295;28;20058;-68
2021/03/16 22:36:52;;;;;;;12.80;10.70;;;;;;;7.83;60.35;100735.22;10304344;28;20046;-67
2021/03/16 22:41:53;;;;;;;13.25;10.90;;;;;;;7.83;59.84;100714.88;10304587;28;20465;-67
2021/03/16 22:46:54;;;;;;;12.35;10.73;;;;;;;7.99;59.72;100733.34;10303582;28;20070;-67
2021/03/16 22:51:55;;;;;;;12.60;11.20;;;;;;;7.95;59.82;100731.81;10305861;28;20050;-65
2021/03/16 22:56:56;;;;;;;15.25;10.88;;;;;;;7.96;59.51;100731.72;10295565;28;20070;-65
2021/03/16 23:01:57;;;;;;;12.70;11.25;;;;;;;7.70;59.49;100709.47;10299287;28;20046;-67
2021/03/16 23:06:58;;;;;;;12.60;11.30;;;;;;;7.83;59.91;100730.75;10301193;28;20045;-66
2021/03/16 23:11:59;;;;;;;12.60;11.27;;;;;;;7.73;59.58;100704.00;10297659;28;20085;-64
2021/03/16 23:17:00;;;;;;;13.10;11.80;;;;;;;7.84;59.64;100726.34;10297894;28;20081;-65
2021/03/16 23:22:02;;;;;;;14.02;12.68;;;;;;;7.87;59.77;100724.34;10296346;28;20059;-64